Time;durP1;ratioP1;P1;durP2;ratioP2;P2;SDS_P1;SDS_P2;PMS_P1;PMS_P2;Temp;Humidity;BMP_temperature;BMP_pressure;BME280_temperature;BME280_humidity;BME280_pressure;Samples;Min_cycle;Max_cycle;Signal;HPM_P1;HPM_P2
2021/09/26 00:00:36;;;;;;;11.88;4.28;;;22.50;61.60;;;;;;6274990;28;20032;-76
2021/09/26 00:03:37;;;;;;;15.13;4.20;;;22.40;61.60;;;;;;6269018;28;20035;-76
2021/09/26 00:06:37;;;;;;;11.73;4.70;;;22.40;61.70;;;;;;6270609;28;20029;-77
2021/09/26 00:09:38;;;;;;;17.95;3.80;;;22.40;61.80;;;;;;6255463;28;20041;-77
2021/09/26 00:12:40;;;;;;;7.53;4.28;;;22.30;61.80;;;;;;6252189;28;20064;-76
2021/09/26 00:15:41;;;;;;;8.15;4.10;;;22.30;62.10;;;;;;6252042;28;20034;-78
2021/09/26 00:18:42;;;;;;;8.63;4.72;;;22.30;62.30;;;;;;6266843;28;20056;-77
2021/09/26 00:21:43;;;;;;;13.02;3.92;;;22.20;62.30;;;;;;6275272;28;20021;-76
2021/09/26 00:24:44;;;;;;;13.13;4.20;;;22.20;62.40;;;;;;6274721;28;20025;-76
2021/09/26 00:27:45;;;;;;;16.60;3.80;;;22.10;62.50;;;;;;6272948;28;20029;-76
2021/09/26 00:30:48;;;;;;;9.30;3.45;;;22.10;62.60;;;;;;6270343;28;20476;-76
2021/09/26 00:33:49;;;;;;;9.95;4.10;;;22.10;62.60;;;;;;6247162;28;20037;-77
2021/09/26 00:36:50;;;;;;;7.97;3.17;;;22.10;62.60;;;;;;6234355;28;20037;-77
2021/09/26 00:39:51;;;;;;;7.82;4.15;;;22.10;62.70;;;;;;6258821;28;20033;-77
2021/09/26 00:42:52;;;;;;;10.80;4.07;;;22.10;62.60;;;;;;6274539;28;20079;-77
2021/09/26 00:45:52;;;;;;;8.48;4.13;;;22.10;62.60;;;;;;6270312;28;20377;-77
2021/09/26 00:48:53;;;;;;;7.78;3.80;;;22.10;62.90;;;;;;6236989;28;20021;-77
2021/09/26 00:51:56;;;;;;;8.32;4.50;;;22.10;63.00;;;;;;6249670;28;20447;-77
2021/09/26 00:54:57;;;;;;;18.17;4.95;;;22.00;63.20;;;;;;6249399;28;20060;-77
2021/09/26 00:57:59;;;;;;;8.25;4.15;;;22.00;63.20;;;;;;6250400;28;20038;-77
2021/09/26 01:01:00;;;;;;;10.52;4.13;;;22.00;63.20;;;;;;6249068;28;20080;-77
2021/09/26 01:04:02;;;;;;;15.05;3.97;;;22.00;63.20;;;;;;6241661;28;20056;-77
2021/09/26 01:07:18;;;;;;;10.27;5.43;;;22.00;63.20;;;;;;6227637;28;20410;-76
2021/09/26 01:10:31;;;;;;;6.88;4.32;;;22.00;63.20;;;;;;6226833;28;20117;-77
2021/09/26 01:13:53;;;;;;;8.48;4.03;;;22.00;63.20;;;;;;6234174;28;20577;-77
2021/09/26 01:17:18;;;;;;;13.75;4.63;;;22.10;63.30;;;;;;6246776;28;20331;-78
2021/09/26 01:20:36;;;;;;;11.50;4.38;;;22.10;63.30;;;;;;6244478;28;20037;-77
2021/09/26 01:23:43;;;;;;;8.23;4.00;;;22.10;63.20;;;;;;6272861;28;20186;-77
2021/09/26 01:27:04;;;;;;;13.27;4.47;;;22.10;63.10;;;;;;6272299;28;20049;-77
2021/09/26 01:30:08;;;;;;;8.55;3.95;;;22.20;63.10;;;;;;6255646;28;20037;-77
2021/09/26 01:33:27;;;;;;;11.48;4.82;;;22.20;63.00;;;;;;6251683;28;20442;-77
2021/09/26 01:36:57;;;;;;;14.43;4.32;;;22.20;63.00;;;;;;6243625;28;20048;-77
2021/09/26 01:40:07;;;;;;;15.43;4.47;;;22.20;62.90;;;;;;6271549;28;20095;-76
2021/09/26 01:43:10;;;;;;;7.38;3.63;;;22.20;62.90;;;;;;6249120;28;20099;-76
2021/09/26 01:46:19;;;;;;;11.15;4.13;;;22.20;62.90;;;;;;6255105;28;20351;-76
2021/09/26 01:49:35;;;;;;;11.60;4.45;;;22.20;62.90;;;;;;6271550;28;20029;-76
2021/09/26 01:52:39;;;;;;;8.75;4.00;;;22.20;63.10;;;;;;6255629;28;20079;-76
2021/09/26 01:55:41;;;;;;;13.70;4.43;;;22.20;63.10;;;;;;6255031;28;20043;-76
2021/09/26 01:58:46;;;;;;;11.80;4.25;;;22.20;63.10;;;;;;6271350;28;20119;-76
2021/09/26 02:01:48;;;;;;;12.80;4.47;;;22.20;63.10;;;;;;6254818;28;20037;-76
2021/09/26 02:05:11;;;;;;;10.07;4.07;;;22.20;63.20;;;;;;6260928;28;20025;-76
2021/09/26 02:08:13;;;;;;;13.90;4.03;;;22.20;63.30;;;;;;6243435;28;20364;-76
2021/09/26 02:11:15;;;;;;;12.15;4.90;;;22.20;63.30;;;;;;6267732;28;20033;-76
2021/09/26 02:14:17;;;;;;;7.10;4.28;;;22.20;63.40;;;;;;6255579;28;20037;-76
2021/09/26 02:17:18;;;;;;;6.85;4.00;;;22.20;63.40;;;;;;6248515;28;20033;-76
2021/09/26 02:20:20;;;;;;;14.32;4.28;;;22.20;63.40;;;;;;6248431;28;20148;-76
2021/09/26 02:23:24;;;;;;;7.22;4.18;;;22.20;63.80;;;;;;6248768;28;20058;-76
2021/09/26 02:26:26;;;;;;;7.80;4.47;;;22.20;63.80;;;;;;6248613;28;20446;-76
2021/09/26 02:29:28;;;;;;;6.15;4.00;;;22.20;63.80;;;;;;6248542;28;20489;-76
2021/09/26 02:32:29;;;;;;;11.52;4.78;;;22.20;63.80;;;;;;6261303;28;20083;-76
2021/09/26 02:35:30;;;;;;;8.52;4.00;;;22.20;64.00;;;;;;6250351;28;20838;-76
2021/09/26 02:38:32;;;;;;;21.15;4.70;;;22.20;64.00;;;;;;6247398;28;20037;-76
2021/09/26 02:41:49;;;;;;;9.52;5.00;;;22.20;64.30;;;;;;6248043;28;20354;-75
2021/09/26 02:45:26;;;;;;;12.63;4.88;;;22.20;64.30;;;;;;6255068;28;20022;-78
2021/09/26 02:48:29;;;;;;;10.95;4.55;;;22.10;64.70;;;;;;6201769;28;20034;-75
2021/09/26 02:51:31;;;;;;;12.82;4.90;;;22.10;65.00;;;;;;6210627;28;20041;-76
2021/09/26 02:54:36;;;;;;;13.80;4.60;;;22.00;65.50;;;;;;6228005;28;20056;-80
2021/09/26 02:57:38;;;;;;;12.23;4.72;;;22.00;66.10;;;;;;6208769;28;20021;-78
2021/09/26 03:00:43;;;;;;;22.05;5.15;;;21.90;66.50;;;;;;6196942;28;20467;-80
2021/09/26 03:03:44;;;;;;;8.70;4.72;;;21.80;67.30;;;;;;6199578;28;20134;-77
2021/09/26 03:06:46;;;;;;;11.93;4.10;;;21.70;67.90;;;;;;6198018;28;20510;-78
2021/09/26 03:09:47;;;;;;;8.80;4.15;;;21.50;67.30;;;;;;6209525;28;20056;-78
2021/09/26 03:12:48;;;;;;;8.85;4.20;;;21.40;66.70;;;;;;6227642;28;20313;-78
2021/09/26 03:15:49;;;;;;;6.85;4.28;;;21.40;66.60;;;;;;6223270;28;20451;-78
2021/09/26 03:18:50;;;;;;;9.27;3.72;;;21.30;66.40;;;;;;6207868;28;20320;-78
2021/09/26 03:21:51;;;;;;;7.93;4.10;;;21.20;66.40;;;;;;6206495;28;20045;-80
2021/09/26 03:24:52;;;;;;;10.25;4.50;;;21.00;65.70;;;;;;6236639;28;20401;-78
2021/09/26 03:27:53;;;;;;;14.43;5.15;;;20.90;65.80;;;;;;6259877;28;20037;-78
2021/09/26 03:31:12;;;;;;;7.10;4.03;;;20.80;66.20;;;;;;6095776;28;20049;-77
2021/09/26 03:34:13;;;;;;;12.93;4.72;;;20.60;66.80;;;;;;6263842;28;20048;-77
2021/09/26 03:37:14;;;;;;;8.93;4.20;;;20.50;67.10;;;;;;6252497;28;20050;-79
2021/09/26 03:40:17;;;;;;;9.48;4.50;;;20.30;67.40;;;;;;6252120;28;20097;-79
2021/09/26 03:43:18;;;;;;;9.55;4.72;;;20.30;67.80;;;;;;6261125;28;20118;-81
2021/09/26 03:46:19;;;;;;;11.70;5.03;;;20.20;68.00;;;;;;6276976;28;20029;-81
2021/09/26 03:49:20;;;;;;;9.75;4.88;;;20.20;68.10;;;;;;6277442;28;20032;-81
2021/09/26 03:52:21;;;;;;;11.63;5.20;;;20.10;68.10;;;;;;6260274;28;20428;-81
2021/09/26 03:55:40;;;;;;;11.25;4.63;;;20.10;68.40;;;;;;6274930;28;20029;-78
2021/09/26 03:58:59;;;;;;;10.38;3.95;;;20.00;68.60;;;;;;6273311;28;20121;-79
2021/09/26 04:02:03;;;;;;;9.05;5.00;;;20.00;68.80;;;;;;6273883;28;20039;-79
2021/09/26 04:05:05;;;;;;;13.88;4.85;;;19.90;68.90;;;;;;6250529;28;20029;-80
2021/09/26 04:08:06;;;;;;;10.57;4.90;;;19.80;69.30;;;;;;6247048;28;20450;-79
2021/09/26 04:11:08;;;;;;;13.20;4.93;;;19.80;69.60;;;;;;6253427;28;20037;-79
2021/09/26 04:14:09;;;;;;;13.55;5.85;;;19.70;69.90;;;;;;6250653;28;20132;-81
2021/09/26 04:17:10;;;;;;;8.82;4.93;;;19.70;70.00;;;;;;6248162;28;20033;-80
2021/09/26 04:20:11;;;;;;;16.20;5.40;;;19.70;70.20;;;;;;6250923;28;20474;-80
2021/09/26 04:23:12;;;;;;;9.25;5.13;;;19.80;70.70;;;;;;6249597;28;20041;-80
2021/09/26 04:26:13;;;;;;;12.23;5.30;;;19.80;70.80;;;;;;6254751;28;20451;-80
2021/09/26 04:29:14;;;;;;;9.45;5.47;;;19.90;70.70;;;;;;6255651;28;20331;-79
2021/09/26 04:32:15;;;;;;;19.25;5.90;;;20.00;70.40;;;;;;6265537;28;20044;-79
2021/09/26 04:35:16;;;;;;;11.48;5.15;;;20.00;70.20;;;;;;6266192;28;20075;-80
2021/09/26 04:38:17;;;;;;;10.65;5.00;;;20.10;70.10;;;;;;6249386;28;20358;-80
2021/09/26 04:41:18;;;;;;;11.55;5.63;;;20.20;70.00;;;;;;6249752;28;20117;-80
2021/09/26 04:44:19;;;;;;;9.50;5.63;;;20.20;70.90;;;;;;6251544;28;20115;-80
2021/09/26 04:47:20;;;;;;;11.05;5.35;;;20.20;70.10;;;;;;6251512;28;20044;-80
2021/09/26 04:50:21;;;;;;;12.40;5.57;;;20.20;70.10;;;;;;6271693;28;20033;-80
2021/09/26 04:53:22;;;;;;;15.20;6.07;;;20.20;70.20;;;;;;6272295;28;20362;-80
2021/09/26 04:56:23;;;;;;;13.05;5.70;;;20.60;70.60;;;;;;6272070;28;20234;-81
2021/09/26 04:59:25;;;;;;;9.73;5.43;;;20.30;70.40;;;;;;6272036;28;20040;-80
2021/09/26 05:02:26;;;;;;;14.45;5.65;;;20.40;70.40;;;;;;6267610;28;20406;-80
2021/09/26 05:05:26;;;;;;;11.27;5.60;;;20.30;70.30;;;;;;6242823;28;20414;-80
2021/09/26 05:08:28;;;;;;;11.82;6.03;;;20.30;70.20;;;;;;6242979;28;20034;-80
2021/09/26 05:11:29;;;;;;;11.70;5.35;;;20.40;70.50;;;;;;6273067;28;20135;-81
2021/09/26 05:14:31;;;;;;;14.77;5.70;;;20.40;70.80;;;;;;6273655;28;20099;-81
2021/09/26 05:17:32;;;;;;;11.15;6.38;;;20.40;71.10;;;;;;6256022;28;20025;-80
2021/09/26 05:20:33;;;;;;;11.90;5.70;;;20.40;71.10;;;;;;6271960;28;20040;-80
2021/09/26 05:23:34;;;;;;;10.63;6.20;;;20.40;71.30;;;;;;6269190;28;20449;-81
2021/09/26 05:26:35;;;;;;;15.27;5.88;;;20.40;71.30;;;;;;6269809;28;20152;-80
2021/09/26 05:29:36;;;;;;;14.48;5.75;;;20.40;71.40;;;;;;6263953;28;20048;-80
2021/09/26 05:32:37;;;;;;;10.38;5.97;;;20.40;71.30;;;;;;6263320;28;20102;-80
2021/09/26 05:35:39;;;;;;;14.07;6.32;;;20.40;71.30;;;;;;6246187;28;20040;-80
2021/09/26 05:38:40;;;;;;;9.70;5.10;;;20.30;71.30;;;;;;6223161;28;20075;-79
2021/09/26 05:41:41;;;;;;;12.50;5.68;;;20.40;71.30;;;;;;6260462;28;22253;-80
2021/09/26 05:44:42;;;;;;;12.77;6.10;;;20.40;71.20;;;;;;6272945;28;20105;-81
2021/09/26 05:47:43;;;;;;;13.15;5.45;;;20.40;71.20;;;;;;6271298;28;20450;-81
2021/09/26 05:50:44;;;;;;;11.95;5.50;;;20.40;71.10;;;;;;6262156;28;21434;-82
2021/09/26 05:53:44;;;;;;;10.30;5.70;;;20.40;71.10;;;;;;6272641;28;20029;-80
2021/09/26 05:56:46;;;;;;;11.93;6.32;;;20.40;71.10;;;;;;6286859;28;20045;-81
2021/09/26 05:59:47;;;;;;;11.63;6.18;;;20.40;71.10;;;;;;6275322;28;20546;-81
2021/09/26 06:02:48;;;;;;;14.02;5.35;;;20.40;71.30;;;;;;6259332;28;20039;-80
2021/09/26 06:05:49;;;;;;;11.13;5.75;;;20.40;71.50;;;;;;6264250;28;20037;-81
2021/09/26 06:08:50;;;;;;;14.20;6.40;;;20.40;71.60;;;;;;6276250;28;20029;-80
2021/09/26 06:11:51;;;;;;;13.57;6.32;;;20.40;71.60;;;;;;6273072;28;20025;-80
2021/09/26 06:14:51;;;;;;;13.25;5.97;;;20.40;71.70;;;;;;6263913;28;20033;-80
2021/09/26 06:17:52;;;;;;;13.73;6.00;;;20.40;71.90;;;;;;6246003;28;20454;-80
2021/09/26 06:20:53;;;;;;;14.10;6.10;;;20.40;71.90;;;;;;6265305;28;20037;-80
2021/09/26 06:23:54;;;;;;;15.18;6.28;;;20.40;71.80;;;;;;6246898;28;20040;-81
2021/09/26 06:26:55;;;;;;;16.05;6.50;;;20.40;71.80;;;;;;6246487;28;20104;-80
2021/09/26 06:29:56;;;;;;;11.30;6.05;;;20.40;71.90;;;;;;6246807;28;20442;-80
2021/09/26 06:32:57;;;;;;;13.20;6.88;;;20.40;72.00;;;;;;6266523;28;20164;-80
2021/09/26 06:35:58;;;;;;;15.68;6.75;;;20.40;72.10;;;;;;6247146;28;20041;-80
2021/09/26 06:39:00;;;;;;;14.98;6.00;;;20.40;72.30;;;;;;6247213;28;20038;-80
2021/09/26 06:42:02;;;;;;;19.20;6.28;;;20.40;72.30;;;;;;6257290;28;20059;-81
2021/09/26 06:45:06;;;;;;;15.05;6.65;;;20.40;72.20;;;;;;6263396;28;20091;-81
2021/09/26 06:48:06;;;;;;;13.15;6.45;;;20.40;72.20;;;;;;6247188;28;20037;-81
2021/09/26 06:51:08;;;;;;;12.45;5.93;;;20.40;72.30;;;;;;6239761;28;20037;-82
2021/09/26 06:54:09;;;;;;;11.50;5.93;;;20.40;72.40;;;;;;6247270;28;20029;-82
2021/09/26 06:57:10;;;;;;;13.43;6.38;;;20.30;72.30;;;;;;6246367;28;20044;-84
2021/09/26 07:00:12;;;;;;;14.43;6.03;;;20.30;72.40;;;;;;6244020;28;20033;-84
2021/09/26 07:03:16;;;;;;;10.65;5.93;;;20.30;72.50;;;;;;6245488;28;20025;-81
2021/09/26 07:06:17;;;;;;;12.98;5.50;;;20.30;73.30;;;;;;6237720;28;20388;-82
2021/09/26 07:09:18;;;;;;;20.13;6.63;;;20.20;72.20;;;;;;6270750;28;20438;-80
2021/09/26 07:12:20;;;;;;;9.85;5.60;;;20.20;72.30;;;;;;6259270;28;20032;-78
2021/09/26 07:15:21;;;;;;;12.52;5.30;;;20.30;72.50;;;;;;6228185;28;20037;-78
2021/09/26 07:18:22;;;;;;;9.77;5.45;;;20.30;72.40;;;;;;6255742;28;20456;-82
2021/09/26 07:21:23;;;;;;;12.07;5.20;;;20.20;72.10;;;;;;6270160;28;20084;-79
2021/09/26 07:24:24;;;;;;;15.48;6.25;;;20.20;72.10;;;;;;6270201;28;20119;-80
2021/09/26 07:27:26;;;;;;;13.13;6.05;;;20.20;72.10;;;;;;6270805;28;20083;-79
2021/09/26 07:30:27;;;;;;;13.38;5.68;;;20.30;72.10;;;;;;6271554;28;20047;-80
2021/09/26 07:33:28;;;;;;;12.70;6.13;;;20.30;72.10;;;;;;6271981;28;20152;-81
2021/09/26 07:36:30;;;;;;;12.68;5.93;;;20.30;72.30;;;;;;6274849;28;20029;-80
2021/09/26 07:39:31;;;;;;;11.93;6.00;;;20.30;72.30;;;;;;6276111;28;20086;-81
2021/09/26 07:42:32;;;;;;;13.50;7.00;;;20.30;72.20;;;;;;6246081;28;20157;-81
2021/09/26 07:45:34;;;;;;;11.40;5.53;;;20.30;72.30;;;;;;6250877;28;20022;-82
2021/09/26 07:48:36;;;;;;;14.70;6.18;;;20.30;72.30;;;;;;6251004;28;20167;-82
2021/09/26 07:51:37;;;;;;;14.82;6.53;;;20.30;72.50;;;;;;6226369;28;20030;-82
2021/09/26 07:54:39;;;;;;;13.05;6.53;;;20.30;72.40;;;;;;6251119;28;20079;-82
2021/09/26 07:57:40;;;;;;;15.27;6.70;;;20.40;72.50;;;;;;6250879;28;20025;-81
2021/09/26 08:00:41;;;;;;;13.13;6.35;;;20.40;72.40;;;;;;6257758;28;20412;-84
2021/09/26 08:03:41;;;;;;;16.75;6.65;;;20.30;72.40;;;;;;6264891;28;20042;-82
2021/09/26 08:06:42;;;;;;;12.65;6.45;;;20.30;72.70;;;;;;6239917;28;20029;-81
2021/09/26 08:09:43;;;;;;;16.05;6.32;;;20.20;72.70;;;;;;6273376;28;20039;-81
2021/09/26 08:12:44;;;;;;;14.73;6.88;;;20.20;72.30;;;;;;6233574;28;20034;-81
2021/09/26 08:16:05;;;;;;;12.05;6.30;;;20.20;72.90;;;;;;6247510;28;20571;-81
2021/09/26 08:19:05;;;;;;;16.80;6.90;;;20.10;73.10;;;;;;6231902;28;20413;-82
2021/09/26 08:22:07;;;;;;;13.60;6.15;;;20.10;73.30;;;;;;6256285;28;20041;-81
2021/09/26 08:25:26;;;;;;;13.77;6.53;;;20.10;73.50;;;;;;6269989;28;20469;-79
2021/09/26 08:28:28;;;;;;;12.77;6.55;;;20.10;73.60;;;;;;6276424;28;20350;-80
2021/09/26 08:31:29;;;;;;;15.30;5.93;;;20.10;73.70;;;;;;6270040;28;20459;-81
2021/09/26 08:34:32;;;;;;;11.73;6.05;;;20.10;73.90;;;;;;6264867;28;20036;-80
2021/09/26 08:37:33;;;;;;;15.20;5.93;;;20.10;74.00;;;;;;6248283;28;20059;-80
2021/09/26 08:40:34;;;;;;;12.93;6.43;;;20.10;74.00;;;;;;6248682;28;20910;-79
2021/09/26 08:43:35;;;;;;;15.07;6.38;;;20.10;73.90;;;;;;6247139;28;20044;-80
2021/09/26 08:46:37;;;;;;;11.95;6.07;;;20.20;74.00;;;;;;6249273;28;20406;-80
2021/09/26 08:49:38;;;;;;;11.77;6.25;;;20.20;73.90;;;;;;6264000;28;20485;-80
2021/09/26 08:52:41;;;;;;;12.80;5.25;;;20.10;73.80;;;;;;6254702;28;20029;-79
2021/09/26 08:55:43;;;;;;;11.07;5.65;;;20.20;73.90;;;;;;6265759;28;20029;-80
2021/09/26 08:58:46;;;;;;;13.45;5.90;;;20.20;73.90;;;;;;6284009;28;20037;-81
2021/09/26 09:01:47;;;;;;;15.88;6.72;;;20.20;73.90;;;;;;6270624;28;20052;-81
2021/09/26 09:04:48;;;;;;;8.40;4.53;;;20.30;73.50;;;;;;6255271;28;20077;-81
2021/09/26 09:08:11;;;;;;;39.10;14.30;;;20.30;73.30;;;;;;6259185;28;20423;-82
2021/09/26 09:11:21;;;;;;;25.75;11.48;;;20.30;73.20;;;;;;6268375;28;20056;-80
2021/09/26 09:14:22;;;;;;;13.13;8.00;;;20.40;72.80;;;;;;6264798;28;20060;-80
2021/09/26 09:17:32;;;;;;;24.55;9.40;;;20.40;72.50;;;;;;6252982;28;20116;-80
2021/09/26 09:20:36;;;;;;;29.48;14.63;;;20.40;72.30;;;;;;6257373;28;20037;-81
2021/09/26 09:23:37;;;;;;;18.15;8.05;;;20.50;72.00;;;;;;6259628;28;20063;-81
2021/09/26 09:26:40;;;;;;;16.77;9.35;;;20.50;71.40;;;;;;6257983;28;20029;-81
2021/09/26 09:30:03;;;;;;;11.10;6.22;;;20.50;71.10;;;;;;6262493;28;20037;-81
2021/09/26 09:33:33;;;;;;;13.07;6.85;;;20.40;70.70;;;;;;6261633;28;20069;-85
2021/09/26 09:37:08;;;;;;;13.98;6.07;;;20.40;70.60;;;;;;6264069;28;20029;-80
2021/09/26 09:40:27;;;;;;;14.50;6.65;;;20.30;70.40;;;;;;6274586;28;20123;-81
2021/09/26 09:43:49;;;;;;;11.07;5.93;;;20.40;70.20;;;;;;6257763;28;20116;-80
2021/09/26 09:46:49;;;;;;;12.55;6.93;;;20.40;69.90;;;;;;6244168;28;20172;-80
2021/09/26 09:49:55;;;;;;;14.88;7.13;;;20.50;69.70;;;;;;6245758;28;20025;-80
2021/09/26 09:53:27;;;;;;;15.98;7.07;;;20.60;69.50;;;;;;6265095;28;20099;-80
2021/09/26 09:56:38;;;;;;;14.15;7.68;;;20.60;68.80;;;;;;6251805;28;20449;-80
2021/09/26 09:59:39;;;;;;;13.70;7.10;;;20.70;68.60;;;;;;6269875;28;20357;-79
2021/09/26 10:02:40;;;;;;;13.43;6.70;;;20.80;68.40;;;;;;6256367;28;20025;-80
2021/09/26 10:05:41;;;;;;;15.85;7.07;;;20.90;68.00;;;;;;6244825;28;20088;-81
2021/09/26 10:08:43;;;;;;;18.85;8.65;;;21.10;67.30;;;;;;6245772;28;20055;-80
2021/09/26 10:11:55;;;;;;;12.00;7.07;;;21.20;66.80;;;;;;6249449;28;20037;-81
2021/09/26 10:14:59;;;;;;;11.23;6.22;;;21.30;66.60;;;;;;6252148;28;20028;-82
2021/09/26 10:18:00;;;;;;;22.50;9.32;;;21.30;66.60;;;;;;6264598;28;20037;-80
2021/09/26 10:21:03;;;;;;;16.67;7.53;;;21.40;66.40;;;;;;6245314;28;20048;-83
2021/09/26 10:24:26;;;;;;;12.13;6.65;;;21.40;66.60;;;;;;6268487;28;20037;-81
2021/09/26 10:27:30;;;;;;;15.43;7.38;;;21.40;66.60;;;;;;6285109;28;20130;-82
2021/09/26 10:30:50;;;;;;;21.58;8.02;;;21.30;66.70;;;;;;6262743;28;20045;-82
2021/09/26 10:34:10;;;;;;;15.77;8.07;;;21.40;66.80;;;;;;6249852;28;20029;-80
2021/09/26 10:37:30;;;;;;;17.80;8.73;;;21.40;66.90;;;;;;6264296;28;20049;-78
2021/09/26 10:40:31;;;;;;;25.52;13.20;;;21.50;66.90;;;;;;6267376;28;20028;-79
2021/09/26 10:43:51;;;;;;;43.50;18.27;;;21.60;66.70;;;;;;6268482;28;20032;-82
2021/09/26 10:47:21;;;;;;;25.80;11.40;;;21.70;66.50;;;;;;6253785;28;20116;-81
2021/09/26 10:50:34;;;;;;;25.33;11.48;;;21.80;66.10;;;;;;6243338;28;20025;-81
2021/09/26 10:53:35;;;;;;;14.45;8.30;;;21.90;66.00;;;;;;6262553;28;20294;-82
2021/09/26 10:56:36;;;;;;;24.52;8.65;;;22.00;65.60;;;;;;6269848;28;20086;-83
2021/09/26 10:59:41;;;;;;;28.38;9.10;;;22.10;65.20;;;;;;6267430;28;20033;-83
2021/09/26 11:02:45;;;;;;;23.90;12.07;;;22.20;65.00;;;;;;6256143;28;20099;-81
2021/09/26 11:05:50;;;;;;;24.17;11.48;;;22.30;64.80;;;;;;6272929;28;20063;-82
2021/09/26 11:08:58;;;;;;;30.73;11.68;;;22.40;64.70;;;;;;6281061;28;20560;-82
2021/09/26 11:11:59;;;;;;;18.60;8.25;;;22.50;64.20;;;;;;6251735;28;20148;-82
2021/09/26 11:15:03;;;;;;;22.88;12.15;;;22.60;63.80;;;;;;6249416;28;20046;-81
2021/09/26 11:18:03;;;;;;;17.27;8.30;;;22.60;63.60;;;;;;6257731;28;20100;-79
2021/09/26 11:21:06;;;;;;;17.17;9.15;;;22.80;63.50;;;;;;6260269;28;20037;-82
2021/09/26 11:24:09;;;;;;;28.15;12.52;;;22.90;63.00;;;;;;6260820;28;20516;-83
2021/09/26 11:27:13;;;;;;;18.10;9.10;;;23.00;62.70;;;;;;6252599;28;20032;-80
2021/09/26 11:30:16;;;;;;;12.50;7.07;;;23.20;62.10;;;;;;6250316;28;20362;-80
2021/09/26 11:33:17;;;;;;;23.60;11.73;;;23.30;61.60;;;;;;6254784;28;20461;-80
2021/09/26 11:36:19;;;;;;;33.63;16.48;;;23.50;61.10;;;;;;6268305;28;20087;-80
2021/09/26 11:39:25;;;;;;;23.88;11.57;;;23.70;60.70;;;;;;6250539;28;20033;-83
2021/09/26 11:42:34;;;;;;;30.33;15.25;;;23.80;60.10;;;;;;6251717;28;20038;-82
2021/09/26 11:45:35;;;;;;;22.52;11.13;;;24.10;59.60;;;;;;6270761;28;20037;-79
2021/09/26 11:48:37;;;;;;;20.58;10.32;;;24.20;58.80;;;;;;6246740;28;20334;-79
2021/09/26 11:51:38;;;;;;;17.17;9.20;;;24.30;58.40;;;;;;6214074;28;20108;-79
2021/09/26 11:54:39;;;;;;;28.77;13.82;;;24.50;58.30;;;;;;6230757;28;20029;-79
2021/09/26 11:57:42;;;;;;;19.42;9.93;;;24.60;58.10;;;;;;6247993;28;20033;-78
2021/09/26 12:00:43;;;;;;;24.77;9.43;;;24.80;57.70;;;;;;6272475;28;20033;-79
2021/09/26 12:03:44;;;;;;;13.57;6.80;;;25.10;56.90;;;;;;6240504;28;20049;-77
2021/09/26 12:06:59;;;;;;;11.93;7.38;;;25.30;56.30;;;;;;6239685;28;20037;-77
2021/09/26 12:10:00;;;;;;;9.77;5.85;;;25.80;55.70;;;;;;6232078;28;20459;-77
2021/09/26 12:13:50;;;;;;;13.60;5.63;;;26.30;54.90;;;;;;6213153;28;20116;-78
2021/09/26 12:16:51;;;;;;;;;;;27.00;52.70;;;;;;6215004;28;20058;-78
2021/09/26 12:20:01;;;;;;;12.05;5.68;;;27.50;51.40;;;;;;6216891;28;19920;-79
2021/09/26 12:23:02;;;;;;;8.45;5.40;;;27.90;50.20;;;;;;6213762;28;20126;-78
2021/09/26 12:26:04;;;;;;;9.43;5.72;;;28.40;49.40;;;;;;6220860;28;20058;-78
2021/09/26 12:29:07;;;;;;;12.35;5.55;;;28.70;48.30;;;;;;6218638;28;20379;-79
2021/09/26 12:32:10;;;;;;;9.43;5.30;;;28.80;47.90;;;;;;6209814;28;20116;-78
2021/09/26 12:35:26;;;;;;;27.45;10.43;;;28.90;47.40;;;;;;6214532;28;20424;-79
2021/09/26 12:38:32;;;;;;;38.38;17.50;;;29.50;46.90;;;;;;6211118;28;20050;-80
2021/09/26 12:41:37;;;;;;;45.20;22.92;;;30.10;45.40;;;;;;6203867;28;20129;-78
2021/09/26 12:44:39;;;;;;;22.13;11.00;;;30.60;44.00;;;;;;6213631;28;20034;-79
2021/09/26 12:47:41;;;;;;;9.70;5.68;;;30.90;42.70;;;;;;6213679;28;20029;-78
2021/09/26 12:50:45;;;;;;;7.15;4.65;;;31.00;42.00;;;;;;6223888;28;20034;-76
2021/09/26 12:53:48;;;;;;;6.57;4.32;;;30.60;42.60;;;;;;6245366;28;20037;-77
2021/09/26 12:56:49;;;;;;;11.48;4.95;;;30.10;43.00;;;;;;6226038;28;20025;-77
2021/09/26 13:00:09;;;;;;;9.90;4.72;;;29.60;43.80;;;;;;6237572;28;20112;-78
2021/09/26 13:03:24;;;;;;;6.88;4.47;;;29.20;44.10;;;;;;6260423;28;20053;-78
2021/09/26 13:06:38;;;;;;;16.05;10.27;;;28.60;44.40;;;;;;6247486;28;20041;-79
2021/09/26 13:09:43;;;;;;;28.63;14.70;;;28.20;44.50;;;;;;6253278;28;20112;-79
2021/09/26 13:12:47;;;;;;;10.57;6.72;;;28.10;44.50;;;;;;6270406;28;20043;-78
2021/09/26 13:15:49;;;;;;;8.45;5.10;;;27.80;44.20;;;;;;6247461;28;20021;-78
2021/09/26 13:18:50;;;;;;;10.95;5.10;;;27.70;44.50;;;;;;6245553;28;20052;-79
2021/09/26 13:22:05;;;;;;;7.75;4.70;;;27.60;45.20;;;;;;6247622;28;20037;-79
2021/09/26 13:25:15;;;;;;;6.30;3.95;;;27.50;45.60;;;;;;6234441;28;20366;-79
2021/09/26 13:28:19;;;;;;;6.00;3.50;;;27.40;45.70;;;;;;6249379;28;20022;-80
2021/09/26 13:31:20;;;;;;;4.82;3.70;;;27.40;45.70;;;;;;6260667;28;20109;-78
2021/09/26 13:34:37;;;;;;;9.15;4.43;;;27.30;46.40;;;;;;6243133;28;20042;-79
2021/09/26 13:37:41;;;;;;;7.88;4.50;;;27.20;45.90;;;;;;6244276;28;20113;-79
2021/09/26 13:40:46;;;;;;;12.52;5.25;;;27.10;45.60;;;;;;6231840;28;20056;-79
2021/09/26 13:44:02;;;;;;;6.75;3.95;;;26.90;45.60;;;;;;6246066;28;20056;-80
2021/09/26 13:47:03;;;;;;;8.43;4.35;;;26.80;46.10;;;;;;6241583;28;20034;-78
2021/09/26 13:50:06;;;;;;;14.55;7.90;;;26.60;46.20;;;;;;6245719;28;20347;-79
2021/09/26 13:53:15;;;;;;;7.20;4.90;;;26.50;46.50;;;;;;6250927;28;20037;-78
2021/09/26 13:56:16;;;;;;;14.60;7.85;;;26.30;46.80;;;;;;6248304;28;20025;-78
2021/09/26 13:59:17;;;;;;;13.55;7.22;;;26.20;46.90;;;;;;6244096;28;20087;-78
2021/09/26 14:02:19;;;;;;;13.75;7.25;;;26.20;46.80;;;;;;6262895;28;20438;-80
2021/09/26 14:05:21;;;;;;;8.45;4.80;;;26.20;46.90;;;;;;6252797;28;20498;-78
2021/09/26 14:08:22;;;;;;;8.15;5.10;;;26.10;46.90;;;;;;6260457;28;20028;-79
2021/09/26 14:11:23;;;;;;;7.10;3.80;;;26.10;46.80;;;;;;6258192;28;20111;-78
2021/09/26 14:14:25;;;;;;;9.43;4.55;;;26.10;46.80;;;;;;6268335;28;20029;-78
2021/09/26 14:17:25;;;;;;;8.82;4.45;;;26.10;46.40;;;;;;6258185;28;20051;-78
2021/09/26 14:20:28;;;;;;;6.10;3.88;;;26.00;46.50;;;;;;6264161;28;20053;-77
2021/09/26 14:23:30;;;;;;;8.40;4.28;;;26.00;46.60;;;;;;6261874;28;20111;-79
2021/09/26 14:26:31;;;;;;;8.98;4.60;;;26.00;46.60;;;;;;6262934;28;20351;-80
2021/09/26 14:29:32;;;;;;;5.80;3.92;;;26.00;46.20;;;;;;6451022;23;20062;-78
2021/09/26 14:32:35;;;;;;;6.88;4.70;;;25.90;46.00;;;;;;6226398;28;20366;-81
2021/09/26 14:35:37;;;;;;;12.18;6.97;;;25.80;46.20;;;;;;6211678;28;20038;-79
2021/09/26 14:38:41;;;;;;;11.85;6.60;;;25.90;46.30;;;;;;6216517;28;20336;-80
2021/09/26 14:41:43;;;;;;;9.35;4.60;;;25.90;46.30;;;;;;6220611;28;20505;-80
2021/09/26 14:44:44;;;;;;;7.35;4.63;;;26.00;46.40;;;;;;6219885;28;20457;-81
2021/09/26 14:47:45;;;;;;;6.70;4.05;;;26.00;46.00;;;;;;6245040;28;20034;-80
2021/09/26 14:51:05;;;;;;;5.75;3.80;;;26.00;45.90;;;;;;6219561;28;20045;-79
2021/09/26 14:54:25;;;;;;;9.00;5.00;;;26.00;46.10;;;;;;6240468;28;20124;-79
2021/09/26 14:57:26;;;;;;;5.93;4.18;;;26.00;46.20;;;;;;6244317;28;20251;-80
2021/09/26 15:00:27;;;;;;;5.95;3.83;;;26.10;46.10;;;;;;6245305;28;20038;-80
2021/09/26 15:03:28;;;;;;;7.78;5.07;;;26.00;46.10;;;;;;6242715;28;20033;-80
2021/09/26 15:06:30;;;;;;;9.02;4.93;;;26.10;46.10;;;;;;6245245;28;20041;-80
2021/09/26 15:09:31;;;;;;;9.30;5.28;;;26.10;45.90;;;;;;6243323;28;20045;-80
2021/09/26 15:12:32;;;;;;;6.18;4.15;;;26.00;45.70;;;;;;6222212;28;20194;-80
2021/09/26 15:15:51;;;;;;;56.08;24.40;;;26.10;45.80;;;;;;6257151;28;20033;-79
2021/09/26 15:19:11;;;;;;;15.00;8.52;;;26.00;45.50;;;;;;6254031;28;20049;-80
2021/09/26 15:22:12;;;;;;;6.18;4.35;;;26.00;45.20;;;;;;6257558;28;20064;-79
2021/09/26 15:25:16;;;;;;;8.02;3.85;;;26.00;45.10;;;;;;6254762;28;20044;-79
2021/09/26 15:28:17;;;;;;;11.02;5.60;;;26.10;45.20;;;;;;6248368;28;20051;-79
2021/09/26 15:31:19;;;;;;;14.23;7.15;;;26.10;45.20;;;;;;6230139;28;20457;-79
2021/09/26 15:34:20;;;;;;;15.90;7.07;;;26.10;45.10;;;;;;6247343;28;20037;-81
2021/09/26 15:37:21;;;;;;;7.35;4.43;;;26.20;45.00;;;;;;6222651;28;20084;-80
2021/09/26 15:40:29;;;;;;;8.50;4.93;;;26.20;45.00;;;;;;6220556;28;20419;-79
2021/09/26 15:43:32;;;;;;;9.52;4.05;;;26.20;45.00;;;;;;6236538;28;20139;-79
2021/09/26 15:46:33;;;;;;;17.92;8.75;;;26.30;45.20;;;;;;6227990;28;20121;-79
2021/09/26 15:49:35;;;;;;;8.75;4.60;;;26.30;45.20;;;;;;6241633;28;20084;-79